createdAt,value
2023-03-17T00:00:23.454Z,3.50
2023-03-17T00:01:23.760Z,3.50
2023-03-17T00:02:24.473Z,3.40
2023-03-17T00:03:24.409Z,3.70
2023-03-17T00:04:24.686Z,3.60
2023-03-17T00:05:25.050Z,3.50
2023-03-17T00:06:25.333Z,3.60
2023-03-17T00:07:25.632Z,3.50
2023-03-17T00:08:25.977Z,3.40
2023-03-17T00:09:26.340Z,3.40
2023-03-17T00:10:26.496Z,3.50
2023-03-17T00:11:26.766Z,3.70
2023-03-17T00:12:27.033Z,3.90
2023-03-17T00:13:27.330Z,3.60
2023-03-17T00:14:27.728Z,3.50
2023-03-17T00:15:27.955Z,3.60
2023-03-17T00:16:28.250Z,3.60
2023-03-17T00:17:28.544Z,3.50
2023-03-17T00:18:28.858Z,3.20
2023-03-17T00:19:29.224Z,3.50
2023-03-17T00:20:29.700Z,3.70
2023-03-17T00:21:29.737Z,3.60
2023-03-17T00:22:30.052Z,3.80
2023-03-17T00:23:30.339Z,3.60
2023-03-17T00:24:30.653Z,3.80
2023-03-17T00:25:30.968Z,3.70
2023-03-17T00:26:31.290Z,3.70
2023-03-17T00:27:31.635Z,3.70
2023-03-17T00:28:31.830Z,3.80
2023-03-17T00:29:33.057Z,3.90
2023-03-17T00:30:32.857Z,3.80
2023-03-17T00:31:32.896Z,4.30
2023-03-17T00:32:33.198Z,3.90
2023-03-17T00:33:33.405Z,4.20
2023-03-17T00:34:33.684Z,4.20
2023-03-17T00:35:34.074Z,3.90
2023-03-17T00:36:34.309Z,4.30
2023-03-17T00:37:34.568Z,4.10
2023-03-17T00:38:34.871Z,4.30
2023-03-17T00:39:35.199Z,4.40
2023-03-17T00:40:35.485Z,4.80
2023-03-17T00:41:35.778Z,4.30
2023-03-17T00:42:36.082Z,4.70
2023-03-17T00:43:36.372Z,4.70
2023-03-17T00:44:36.692Z,4.40
2023-03-17T00:45:37.002Z,4.30
2023-03-17T00:46:37.344Z,4.00
2023-03-17T00:47:37.497Z,4.40
2023-03-17T00:48:37.818Z,4.70
2023-03-17T00:49:38.196Z,4.30
2023-03-17T00:50:38.513Z,4.70
2023-03-17T00:51:39.237Z,4.20
2023-03-17T00:52:39.475Z,4.30
2023-03-17T00:53:39.329Z,4.50
2023-03-17T00:54:39.647Z,4.50
2023-03-17T00:55:39.936Z,4.30
2023-03-17T00:56:40.227Z,4.60
2023-03-17T00:57:40.548Z,4.20
2023-03-17T00:58:40.821Z,4.30
2023-03-17T00:59:41.028Z,4.20
2023-03-17T01:00:41.281Z,4.30
2023-03-17T01:01:41.686Z,4.20
2023-03-17T01:02:41.954Z,4.40
2023-03-17T01:03:42.237Z,4.20
2023-03-17T01:04:45.589Z,4.60
2023-03-17T01:05:43.769Z,4.30
2023-03-17T01:06:43.075Z,4.30
2023-03-17T01:07:43.434Z,4.30
2023-03-17T01:08:43.745Z,4.50
2023-03-17T01:09:44.076Z,4.30
2023-03-17T01:10:44.274Z,4.20
2023-03-17T01:11:44.581Z,4.50
2023-03-17T01:12:44.897Z,4.40
2023-03-17T01:13:45.214Z,4.20
2023-03-17T01:14:45.548Z,4.40
2023-03-17T01:15:45.845Z,4.40
2023-03-17T01:16:46.203Z,4.40
2023-03-17T01:17:46.490Z,4.00
2023-03-17T01:18:46.808Z,4.30
2023-03-17T01:19:47.030Z,4.40
2023-03-17T01:20:47.314Z,4.20
2023-03-17T01:21:47.571Z,4.00
2023-03-17T01:22:47.857Z,4.30
2023-03-17T01:23:48.215Z,4.10
2023-03-17T01:24:48.507Z,4.00
2023-03-17T01:25:48.772Z,4.00
2023-03-17T01:26:49.048Z,3.90
2023-03-17T01:27:49.290Z,4.00
2023-03-17T01:28:49.548Z,4.10
2023-03-17T01:29:49.851Z,3.80
2023-03-17T01:30:50.149Z,4.00
2023-03-17T01:31:50.444Z,4.00
2023-03-17T01:32:50.733Z,3.90
2023-03-17T01:33:51.011Z,4.30
2023-03-17T01:34:51.263Z,3.90
2023-03-17T01:35:51.666Z,4.10
2023-03-17T01:36:51.895Z,4.00
2023-03-17T01:37:52.199Z,4.20
2023-03-17T01:38:52.453Z,4.10
2023-03-17T01:39:52.802Z,4.10
2023-03-17T01:40:53.122Z,4.00
2023-03-17T01:41:53.426Z,4.10
2023-03-17T01:42:53.777Z,3.90
2023-03-17T01:43:54.082Z,4.10
2023-03-17T01:44:54.288Z,3.80
2023-03-17T01:45:54.612Z,3.70
2023-03-17T01:46:54.892Z,3.90
2023-03-17T01:47:55.248Z,3.70
2023-03-17T01:48:55.470Z,3.70
2023-03-17T01:49:55.738Z,3.90
2023-03-17T01:50:56.027Z,3.60
2023-03-17T01:51:56.349Z,3.80
2023-03-17T01:52:56.653Z,4.00
2023-03-17T01:53:56.969Z,3.70
2023-03-17T01:54:57.286Z,3.90
2023-03-17T01:55:57.579Z,3.90
2023-03-17T01:56:57.884Z,3.70
2023-03-17T01:57:58.220Z,3.60
2023-03-17T01:58:58.532Z,3.60
2023-03-17T01:59:58.934Z,3.60
2023-03-17T02:00:59.270Z,3.50
2023-03-17T02:01:59.426Z,3.90
2023-03-17T02:02:59.709Z,3.90
2023-03-17T02:04:00.198Z,3.80
2023-03-17T02:05:00.268Z,3.80
2023-03-17T02:06:00.533Z,3.90
2023-03-17T02:07:00.856Z,4.00
2023-03-17T02:08:01.998Z,3.80
2023-03-17T02:09:01.633Z,3.80
2023-03-17T02:10:01.678Z,3.60
2023-03-17T02:11:02.069Z,3.80
2023-03-17T02:12:02.312Z,4.10
2023-03-17T02:13:02.713Z,3.70
2023-03-17T02:14:02.992Z,4.00
2023-03-17T02:15:03.269Z,4.00
2023-03-17T02:16:03.545Z,3.90
2023-03-17T02:17:03.893Z,3.60
2023-03-17T02:18:04.281Z,3.70
2023-03-17T02:19:04.454Z,3.90
2023-03-17T02:20:04.780Z,3.60
2023-03-17T02:21:05.060Z,3.90
2023-03-17T02:22:05.370Z,3.70
2023-03-17T02:23:05.741Z,3.90
2023-03-17T02:24:05.924Z,4.00
2023-03-17T02:25:06.288Z,4.50
2023-03-17T02:26:06.537Z,4.30
2023-03-17T02:27:06.908Z,4.20
2023-03-17T02:28:07.209Z,4.30
2023-03-17T02:29:07.538Z,4.80
2023-03-17T02:30:07.820Z,4.90
2023-03-17T02:31:08.243Z,4.80
2023-03-17T02:32:08.522Z,4.90
2023-03-17T02:33:08.764Z,4.60
2023-03-17T02:34:08.956Z,5.10
2023-03-17T02:35:09.259Z,5.10
2023-03-17T02:36:09.633Z,5.20
2023-03-17T02:37:09.817Z,5.30
2023-03-17T02:38:10.128Z,5.40
2023-03-17T02:39:10.419Z,5.40
2023-03-17T02:40:10.778Z,5.40
2023-03-17T02:41:11.064Z,5.30
2023-03-17T02:42:12.257Z,5.60
2023-03-17T02:43:12.014Z,5.40
2023-03-17T02:44:11.979Z,5.40
2023-03-17T02:45:12.328Z,5.50
2023-03-17T02:46:13.532Z,5.70
2023-03-17T02:47:13.191Z,6.10
2023-03-17T02:48:13.215Z,5.70
2023-03-17T02:49:13.530Z,6.10
2023-03-17T02:50:13.831Z,6.10
2023-03-17T02:51:14.186Z,5.90
2023-03-17T02:52:14.400Z,5.70
2023-03-17T02:53:14.693Z,5.80
2023-03-17T02:54:14.991Z,5.90
2023-03-17T02:55:15.300Z,6.20
2023-03-17T02:56:15.641Z,6.30
2023-03-17T02:57:15.956Z,5.80
2023-03-17T02:58:16.233Z,6.10
2023-03-17T02:59:16.503Z,6.60
2023-03-17T03:00:16.878Z,6.40
2023-03-17T03:01:17.178Z,5.90
2023-03-17T03:02:17.471Z,6.20
2023-03-17T03:03:17.797Z,6.40
2023-03-17T03:04:18.048Z,6.10
2023-03-17T03:05:18.376Z,6.20
2023-03-17T03:06:18.702Z,6.00
2023-03-17T03:07:19.009Z,6.20
2023-03-17T03:08:19.322Z,6.10
2023-03-17T03:09:19.585Z,6.10
2023-03-17T03:10:19.958Z,6.20
2023-03-17T03:11:20.163Z,6.70
2023-03-17T03:12:21.305Z,6.70
2023-03-17T03:13:20.789Z,6.80
2023-03-17T03:14:21.159Z,6.90
2023-03-17T03:15:21.342Z,7.00
2023-03-17T03:16:21.630Z,6.90
2023-03-17T03:17:21.961Z,6.90
2023-03-17T03:18:22.259Z,6.40
2023-03-17T03:19:22.554Z,6.40
2023-03-17T03:20:22.843Z,6.90
2023-03-17T03:21:23.120Z,6.70
2023-03-17T03:22:23.501Z,6.80
2023-03-17T03:23:23.825Z,6.60
2023-03-17T03:24:24.160Z,7.00
2023-03-17T03:25:24.466Z,7.40
2023-03-17T03:26:24.812Z,7.00
2023-03-17T03:27:25.025Z,7.90
2023-03-17T03:28:25.335Z,7.80
2023-03-17T03:29:25.696Z,7.80
2023-03-17T03:30:25.971Z,8.20
2023-03-17T03:31:26.363Z,8.40
2023-03-17T03:32:26.625Z,7.60
2023-03-17T03:33:26.808Z,7.70
2023-03-17T03:34:27.205Z,8.00
2023-03-17T03:35:27.337Z,8.10
2023-03-17T03:36:27.619Z,8.10
2023-03-17T03:37:27.915Z,8.40
2023-03-17T03:38:28.230Z,8.80
2023-03-17T03:39:28.574Z,8.90
2023-03-17T03:40:29.204Z,8.70
2023-03-17T03:41:29.122Z,8.20
2023-03-17T03:42:29.484Z,8.70
2023-03-17T03:43:29.640Z,8.50
2023-03-17T03:44:29.982Z,8.40
2023-03-17T03:45:30.219Z,8.60
2023-03-17T03:46:30.545Z,8.30
2023-03-17T03:47:30.819Z,8.20
2023-03-17T03:48:31.098Z,8.40
2023-03-17T03:49:31.389Z,8.10
2023-03-17T03:50:32.025Z,8.20
2023-03-17T03:51:31.969Z,8.20
2023-03-17T03:52:32.315Z,8.20
2023-03-17T03:53:32.627Z,8.30
2023-03-17T03:54:32.964Z,8.20
2023-03-17T03:55:33.281Z,8.20
2023-03-17T03:56:33.629Z,8.20
2023-03-17T03:57:34.054Z,7.90
2023-03-17T03:58:34.256Z,8.50
2023-03-17T03:59:34.550Z,8.50
2023-03-17T04:00:34.892Z,8.30
2023-03-17T04:01:35.137Z,8.50
2023-03-17T04:02:35.515Z,8.30
2023-03-17T04:03:35.673Z,8.30
2023-03-17T04:04:36.129Z,8.40
2023-03-17T04:05:36.317Z,8.60
2023-03-17T04:06:36.606Z,8.70
2023-03-17T04:07:36.969Z,8.80
2023-03-17T04:08:37.278Z,8.80
2023-03-17T04:09:37.440Z,9.10
2023-03-17T04:10:37.771Z,8.70
2023-03-17T04:11:38.199Z,10.40
2023-03-17T04:12:38.426Z,9.60
2023-03-17T04:13:39.621Z,9.90
2023-03-17T04:14:39.105Z,9.30
2023-03-17T04:15:39.466Z,9.70
2023-03-17T04:16:41.626Z,9.40
2023-03-17T04:17:39.977Z,9.30
2023-03-17T04:18:40.257Z,9.40
2023-03-17T04:19:40.589Z,9.40
2023-03-17T04:20:40.865Z,9.20
2023-03-17T04:21:41.044Z,9.40
2023-03-17T04:22:41.347Z,9.20
2023-03-17T04:23:41.610Z,9.50
2023-03-17T04:24:41.926Z,9.40
2023-03-17T04:25:42.266Z,9.40
2023-03-17T04:26:42.536Z,9.80
2023-03-17T04:27:42.785Z,10.20
2023-03-17T04:28:43.104Z,9.70
2023-03-17T04:29:43.415Z,9.70
2023-03-17T04:30:43.769Z,9.90
2023-03-17T04:31:43.978Z,10.30
2023-03-17T04:32:44.223Z,9.70
2023-03-17T04:33:44.516Z,9.50
2023-03-17T04:34:44.915Z,9.10
2023-03-17T04:35:45.191Z,9.10
2023-03-17T04:36:45.476Z,9.50
2023-03-17T04:37:45.683Z,9.40
2023-03-17T04:38:45.987Z,9.60
2023-03-17T04:39:46.261Z,9.40
2023-03-17T04:40:46.497Z,9.50
2023-03-17T04:41:46.842Z,9.50
2023-03-17T04:42:47.139Z,9.40
2023-03-17T04:43:47.473Z,9.60
2023-03-17T04:44:47.771Z,9.90
2023-03-17T04:45:48.123Z,9.60
2023-03-17T04:46:48.280Z,9.90
2023-03-17T04:47:48.612Z,9.20
2023-03-17T04:48:48.975Z,9.40
2023-03-17T04:49:49.298Z,9.70
2023-03-17T04:50:49.647Z,9.40
2023-03-17T04:51:49.980Z,9.10
2023-03-17T04:52:50.313Z,8.80
2023-03-17T04:53:50.567Z,9.00
2023-03-17T04:54:50.844Z,9.60
2023-03-17T04:55:51.175Z,9.10
2023-03-17T04:56:51.361Z,9.30
2023-03-17T04:57:51.685Z,9.70
2023-03-17T04:58:52.033Z,9.60
2023-03-17T04:59:52.380Z,9.00
2023-03-17T05:00:52.694Z,9.30
2023-03-17T05:01:53.012Z,9.00
2023-03-17T05:02:53.178Z,9.10
2023-03-17T05:03:53.403Z,9.30
2023-03-17T05:04:53.732Z,9.70
2023-03-17T05:05:54.018Z,9.50
2023-03-17T05:06:54.357Z,10.10
2023-03-17T05:07:55.614Z,9.90
2023-03-17T05:08:54.972Z,9.90
2023-03-17T05:09:55.182Z,9.30
2023-03-17T05:10:55.439Z,8.80
2023-03-17T05:12:03.665Z,9.10
2023-03-17T05:12:55.981Z,9.10
2023-03-17T05:13:56.679Z,8.80
2023-03-17T05:14:56.712Z,8.80
2023-03-17T05:15:56.984Z,9.00
2023-03-17T05:16:57.367Z,9.10
2023-03-17T05:17:57.586Z,8.60
2023-03-17T05:18:58.018Z,8.90
2023-03-17T05:19:58.241Z,9.30
2023-03-17T05:20:58.480Z,9.00
2023-03-17T05:21:58.699Z,9.20
2023-03-17T05:22:59.105Z,9.60
2023-03-17T05:23:59.303Z,9.30
2023-03-17T05:24:59.538Z,9.70
2023-03-17T05:25:59.869Z,9.50
2023-03-17T05:27:00.090Z,9.60
2023-03-17T05:28:00.395Z,9.90
2023-03-17T05:29:00.677Z,9.90
2023-03-17T05:30:00.873Z,10.10
2023-03-17T05:31:01.207Z,10.80
2023-03-17T05:32:01.378Z,10.50
2023-03-17T05:33:01.677Z,10.20
2023-03-17T05:34:01.906Z,10.50
2023-03-17T05:35:02.216Z,10.30
2023-03-17T05:36:02.425Z,10.70
2023-03-17T05:37:02.721Z,10.00
2023-03-17T05:38:04.689Z,10.70
2023-03-17T05:39:04.269Z,10.70
2023-03-17T05:40:03.416Z,10.00
2023-03-17T05:41:03.675Z,10.30
2023-03-17T05:42:03.966Z,12.60
2023-03-17T05:43:04.201Z,10.30
2023-03-17T05:44:04.436Z,11.50
2023-03-17T05:45:04.702Z,13.00
2023-03-17T05:46:05.024Z,10.80
2023-03-17T05:47:05.268Z,11.20
2023-03-17T05:48:05.528Z,10.00
2023-03-17T05:49:06.244Z,10.40
2023-03-17T05:50:06.129Z,10.50
2023-03-17T05:51:06.380Z,9.70
2023-03-17T05:52:06.624Z,9.80
2023-03-17T05:53:06.935Z,10.00
2023-03-17T05:54:07.257Z,10.30
2023-03-17T05:55:07.480Z,10.80
2023-03-17T05:56:07.772Z,11.00
2023-03-17T05:57:08.078Z,10.80
2023-03-17T05:58:08.308Z,11.00
2023-03-17T05:59:08.571Z,10.60
2023-03-17T06:00:08.832Z,10.60
2023-03-17T06:01:09.137Z,11.40
2023-03-17T06:02:09.415Z,11.00
2023-03-17T06:03:09.683Z,10.70
2023-03-17T06:04:09.891Z,10.70
2023-03-17T06:05:10.188Z,10.90
2023-03-17T06:06:10.480Z,12.10
2023-03-17T06:07:10.757Z,11.40
2023-03-17T06:08:10.988Z,11.20
2023-03-17T06:09:11.249Z,11.00
2023-03-17T06:10:11.492Z,11.10
2023-03-17T06:11:11.790Z,11.20
2023-03-17T06:12:12.108Z,11.40
2023-03-17T06:13:12.349Z,10.30
2023-03-17T06:14:12.706Z,10.40
2023-03-17T06:15:13.024Z,10.50
2023-03-17T06:16:13.250Z,10.20
2023-03-17T06:17:13.553Z,9.50
2023-03-17T06:18:13.815Z,9.50
2023-03-17T06:19:14.123Z,9.20
2023-03-17T06:20:14.288Z,10.50
2023-03-17T06:21:14.543Z,9.60
2023-03-17T06:22:14.843Z,9.60
2023-03-17T06:23:15.078Z,9.40
2023-03-17T06:24:15.344Z,9.40
2023-03-17T06:25:15.670Z,9.70
2023-03-17T06:26:15.896Z,9.40
2023-03-17T06:27:16.121Z,9.00
2023-03-17T06:28:16.390Z,9.30
2023-03-17T06:29:16.672Z,10.10
2023-03-17T06:30:16.937Z,9.90
2023-03-17T06:31:17.263Z,10.00
2023-03-17T06:32:20.925Z,10.60
2023-03-17T06:33:17.788Z,10.30
2023-03-17T06:34:18.053Z,11.70
2023-03-17T06:35:18.371Z,11.00
2023-03-17T06:36:19.051Z,10.80
2023-03-17T06:37:18.896Z,11.20
2023-03-17T06:38:19.196Z,11.20
2023-03-17T06:39:19.468Z,11.00
2023-03-17T06:40:19.766Z,11.70
2023-03-17T06:41:20.093Z,11.00
2023-03-17T06:42:20.427Z,11.40
2023-03-17T06:43:20.636Z,10.50
2023-03-17T06:44:20.973Z,11.10
2023-03-17T06:45:21.184Z,10.60
2023-03-17T06:46:21.760Z,11.80
2023-03-17T06:47:23.568Z,11.70
2023-03-17T06:48:22.102Z,11.80
2023-03-17T06:49:23.293Z,11.60
2023-03-17T06:50:22.752Z,11.50
2023-03-17T06:51:23.000Z,12.60
2023-03-17T06:52:23.333Z,12.10
2023-03-17T06:53:23.542Z,13.00
2023-03-17T06:54:23.797Z,12.80
2023-03-17T06:55:24.097Z,12.30
2023-03-17T06:56:30.327Z,12.70
2023-03-17T06:57:25.646Z,15.30
2023-03-17T06:58:24.999Z,12.00
2023-03-17T06:59:25.218Z,11.80
2023-03-17T07:00:25.502Z,11.40
2023-03-17T07:01:25.768Z,10.80
2023-03-17T07:02:26.044Z,11.20
2023-03-17T07:03:26.341Z,10.80
2023-03-17T07:04:26.647Z,10.70
2023-03-17T07:05:26.905Z,10.10
2023-03-17T07:06:27.800Z,11.50
2023-03-17T07:07:27.461Z,12.50
2023-03-17T07:08:27.733Z,11.10
2023-03-17T07:09:28.073Z,10.90
2023-03-17T07:10:28.286Z,10.90
2023-03-17T07:11:35.232Z,10.60
2023-03-17T07:12:29.083Z,10.80
2023-03-17T07:13:29.228Z,10.90
2023-03-17T07:14:29.486Z,11.10
2023-03-17T07:15:30.197Z,11.60
2023-03-17T07:16:30.290Z,11.10
2023-03-17T07:17:30.628Z,10.80
2023-03-17T07:18:30.651Z,10.20
2023-03-17T07:19:31.282Z,10.50
2023-03-17T07:20:33.242Z,11.90
2023-03-17T07:21:31.287Z,10.00
2023-03-17T07:22:31.611Z,9.50
2023-03-17T07:23:31.875Z,9.20
2023-03-17T07:24:32.169Z,9.90
2023-03-17T07:25:32.799Z,10.10
2023-03-17T07:26:32.668Z,9.90
2023-03-17T07:27:33.341Z,9.80
2023-03-17T07:28:33.280Z,10.00
2023-03-17T07:29:33.491Z,10.00
2023-03-17T07:30:33.881Z,11.50
2023-03-17T07:31:34.160Z,11.10
2023-03-17T07:32:34.392Z,11.10
2023-03-17T07:33:37.170Z,10.60
2023-03-17T07:34:34.898Z,9.50
2023-03-17T07:35:35.203Z,9.90
2023-03-17T07:36:35.439Z,9.40
2023-03-17T07:37:35.713Z,9.80
2023-03-17T07:38:36.047Z,9.00
2023-03-17T07:39:36.297Z,9.80
2023-03-17T07:40:36.597Z,9.60
2023-03-17T07:41:36.842Z,10.00
2023-03-17T07:42:37.095Z,9.40
2023-03-17T07:43:37.325Z,9.30
2023-03-17T07:44:37.627Z,9.30
2023-03-17T07:45:38.085Z,9.40
2023-03-17T07:46:38.952Z,9.20
2023-03-17T07:47:38.429Z,9.20
2023-03-17T07:48:38.690Z,9.40
2023-03-17T07:49:42.009Z,9.40
2023-03-17T07:50:39.234Z,9.70
2023-03-17T07:51:39.473Z,9.50
2023-03-17T07:52:39.733Z,9.50
2023-03-17T07:53:40.041Z,10.30
2023-03-17T07:54:42.864Z,9.80
2023-03-17T07:55:40.732Z,11.30
2023-03-17T07:56:40.947Z,11.80
2023-03-17T07:57:41.256Z,11.20
2023-03-17T07:58:41.594Z,10.10
2023-03-17T07:59:41.860Z,10.80
2023-03-17T08:00:42.176Z,10.70
2023-03-17T08:01:42.465Z,10.30
2023-03-17T08:02:42.712Z,10.80
2023-03-17T08:03:43.030Z,10.10
2023-03-17T08:04:43.256Z,10.10
2023-03-17T08:05:43.533Z,10.50
2023-03-17T08:06:44.742Z,9.70
2023-03-17T08:07:44.164Z,9.70
2023-03-17T08:08:45.388Z,9.90
2023-03-17T08:09:44.673Z,9.10
2023-03-17T08:10:44.987Z,10.10
2023-03-17T08:11:45.238Z,9.90
2023-03-17T08:12:45.558Z,9.60
2023-03-17T08:13:45.850Z,9.80
2023-03-17T08:14:46.130Z,10.20
2023-03-17T08:15:46.393Z,9.90
2023-03-17T08:16:46.701Z,10.00
2023-03-17T08:17:46.960Z,9.60
2023-03-17T08:18:47.277Z,9.70
2023-03-17T08:19:47.583Z,9.70
2023-03-17T08:20:47.937Z,9.40
2023-03-17T08:21:48.180Z,10.40
2023-03-17T08:22:48.423Z,11.00
2023-03-17T08:23:48.690Z,9.90
2023-03-17T08:24:48.947Z,10.50
2023-03-17T08:25:49.263Z,9.80
2023-03-17T08:26:49.527Z,9.60
2023-03-17T08:27:49.769Z,11.30
2023-03-17T08:28:50.111Z,11.20
2023-03-17T08:29:50.391Z,8.20
2023-03-17T08:30:50.940Z,9.50
2023-03-17T08:31:51.014Z,7.80
2023-03-17T08:32:51.146Z,8.80
2023-03-17T08:33:52.258Z,7.60
2023-03-17T08:34:51.673Z,7.50
2023-03-17T08:35:51.986Z,7.70
2023-03-17T08:36:52.224Z,7.40
2023-03-17T08:37:55.017Z,7.20
2023-03-17T08:38:52.809Z,6.20
2023-03-17T08:39:53.072Z,9.00
2023-03-17T08:40:53.371Z,7.00
2023-03-17T08:41:53.739Z,6.50
2023-03-17T08:42:54.044Z,6.60
2023-03-17T08:43:54.326Z,6.80
2023-03-17T08:44:55.490Z,6.60
2023-03-17T08:45:54.936Z,6.90
2023-03-17T08:46:55.473Z,6.70
2023-03-17T08:47:55.403Z,6.70
2023-03-17T08:48:55.681Z,7.70
2023-03-17T08:49:55.953Z,6.80
2023-03-17T08:50:56.192Z,6.80
2023-03-17T08:51:56.478Z,6.70
2023-03-17T08:52:56.737Z,6.80
2023-03-17T08:53:57.013Z,6.30
2023-03-17T08:54:57.357Z,6.30
2023-03-17T08:55:57.589Z,6.50
2023-03-17T08:56:57.849Z,6.10
2023-03-17T08:57:58.080Z,6.30
2023-03-17T08:58:58.310Z,6.00
2023-03-17T08:59:59.483Z,6.60
2023-03-17T09:00:58.905Z,6.50
2023-03-17T09:01:59.164Z,6.20
2023-03-17T09:02:59.471Z,6.70
2023-03-17T09:03:59.734Z,6.40
2023-03-17T09:05:00.105Z,6.30
2023-03-17T09:06:00.348Z,6.80
2023-03-17T09:07:04.533Z,6.50
2023-03-17T09:08:00.925Z,6.00
2023-03-17T09:09:01.223Z,6.10
2023-03-17T09:10:01.534Z,5.90
2023-03-17T09:11:01.771Z,5.50
2023-03-17T09:12:02.027Z,5.70
2023-03-17T09:13:02.322Z,5.80
2023-03-17T09:14:02.610Z,5.40
2023-03-17T09:15:02.855Z,4.90
2023-03-17T09:16:03.228Z,4.90
2023-03-17T09:17:05.780Z,4.90
2023-03-17T09:18:03.914Z,5.10
2023-03-17T09:19:04.012Z,5.50
2023-03-17T09:20:04.322Z,5.10
2023-03-17T09:21:04.575Z,5.00
2023-03-17T09:22:05.825Z,5.50
2023-03-17T09:23:05.152Z,5.30
2023-03-17T09:24:05.448Z,4.70
2023-03-17T09:25:05.705Z,5.30
2023-03-17T09:26:06.850Z,5.00
2023-03-17T09:27:06.313Z,5.10
2023-03-17T09:28:06.589Z,5.00
2023-03-17T09:29:06.849Z,5.00
2023-03-17T09:30:07.161Z,5.20
2023-03-17T09:31:07.482Z,5.00
2023-03-17T09:32:07.798Z,4.80
2023-03-17T09:33:08.127Z,4.90
2023-03-17T09:34:08.245Z,4.50
2023-03-17T09:35:08.497Z,5.10
2023-03-17T09:36:08.830Z,4.90
2023-03-17T09:37:09.077Z,4.90
2023-03-17T09:38:09.330Z,4.80
2023-03-17T09:39:09.556Z,4.80
2023-03-17T09:40:09.954Z,4.90
2023-03-17T09:41:10.119Z,4.70
2023-03-17T09:42:10.321Z,4.80
2023-03-17T09:43:10.632Z,4.90
2023-03-17T09:44:11.002Z,4.70
2023-03-17T09:45:11.261Z,4.90
2023-03-17T09:46:13.259Z,4.60
2023-03-17T09:47:11.772Z,4.80
2023-03-17T09:48:12.086Z,4.60
2023-03-17T09:49:12.323Z,4.50
2023-03-17T09:50:12.610Z,4.20
2023-03-17T09:51:12.925Z,4.20
2023-03-17T09:52:13.187Z,4.20
2023-03-17T09:53:13.467Z,4.00
2023-03-17T09:54:13.716Z,4.30
2023-03-17T09:55:14.241Z,4.10
2023-03-17T09:56:14.351Z,3.80
2023-03-17T09:57:14.557Z,3.70
2023-03-17T09:58:14.806Z,3.80
2023-03-17T09:59:15.062Z,3.70
2023-03-17T10:00:15.351Z,4.00
2023-03-17T10:01:15.634Z,3.80
2023-03-17T10:02:15.828Z,3.80
2023-03-17T10:03:16.078Z,3.70
2023-03-17T10:04:18.747Z,3.80
2023-03-17T10:05:16.597Z,4.10
2023-03-17T10:06:16.852Z,3.90
2023-03-17T10:07:17.120Z,3.90
2023-03-17T10:08:30.049Z,3.90
2023-03-17T10:09:18.617Z,3.80
2023-03-17T10:10:17.926Z,3.80
2023-03-17T10:11:18.188Z,10.90
2023-03-17T10:12:18.546Z,22.00
2023-03-17T10:13:18.916Z,13.50
2023-03-17T10:14:19.061Z,10.40
2023-03-17T10:15:20.017Z,6.70
2023-03-17T10:16:19.744Z,4.50
2023-03-17T10:17:19.914Z,4.10
2023-03-17T10:18:20.199Z,4.10
2023-03-17T10:19:20.524Z,3.90
2023-03-17T10:20:21.205Z,3.70
2023-03-17T10:21:21.086Z,3.70
2023-03-17T10:22:21.406Z,3.80
2023-03-17T10:23:21.707Z,3.80
2023-03-17T10:24:21.975Z,3.70
2023-03-17T10:25:22.328Z,4.10
2023-03-17T10:26:23.524Z,3.80
2023-03-17T10:27:22.854Z,4.10
2023-03-17T10:28:23.155Z,4.10
2023-03-17T10:29:24.331Z,4.10
2023-03-17T10:30:23.851Z,4.60
2023-03-17T10:31:25.022Z,4.20
2023-03-17T10:32:24.611Z,4.10
2023-03-17T10:33:24.587Z,4.40
2023-03-17T10:34:24.964Z,4.40
2023-03-17T10:35:25.092Z,4.30
2023-03-17T10:36:25.371Z,4.50
2023-03-17T10:37:25.649Z,4.60
2023-03-17T10:38:25.914Z,4.20
2023-03-17T10:39:26.212Z,4.20
2023-03-17T10:40:26.466Z,4.40
2023-03-17T10:41:26.710Z,4.30
2023-03-17T10:42:26.996Z,4.50
2023-03-17T10:43:27.293Z,4.50
2023-03-17T10:44:27.548Z,4.50
2023-03-17T10:45:27.881Z,4.50
2023-03-17T10:46:28.198Z,4.80
2023-03-17T10:47:28.435Z,4.70
2023-03-17T10:48:28.824Z,5.20
2023-03-17T10:49:28.910Z,5.80
2023-03-17T10:50:29.763Z,5.60
2023-03-17T10:51:29.495Z,4.70
2023-03-17T10:52:29.780Z,4.80
2023-03-17T10:53:30.061Z,4.60
2023-03-17T10:54:30.318Z,4.50
2023-03-17T10:55:30.580Z,4.10
2023-03-17T10:56:30.894Z,3.90
2023-03-17T10:57:31.082Z,4.90
2023-03-17T10:58:31.353Z,4.00
2023-03-17T11:00:32.380Z,4.80
2023-03-17T11:01:32.280Z,4.10
2023-03-17T11:02:32.569Z,4.50
2023-03-17T11:03:32.890Z,4.20
2023-03-17T11:04:33.142Z,4.30
2023-03-17T11:05:33.397Z,4.30
2023-03-17T11:06:33.681Z,4.10
2023-03-17T11:07:33.949Z,4.50
2023-03-17T11:08:34.262Z,4.30
2023-03-17T11:09:34.475Z,4.40
2023-03-17T11:10:34.777Z,4.30
2023-03-17T11:11:35.021Z,4.50
2023-03-17T11:12:35.233Z,4.80
2023-03-17T11:13:35.486Z,5.50
2023-03-17T11:14:35.761Z,4.90
2023-03-17T11:15:36.046Z,4.40
2023-03-17T11:16:36.372Z,5.60
2023-03-17T11:17:36.572Z,5.00
2023-03-17T11:18:36.824Z,6.20
2023-03-17T11:19:37.128Z,5.10
2023-03-17T11:20:37.431Z,4.80
2023-03-17T11:21:37.938Z,5.30
2023-03-17T11:22:37.901Z,5.80
2023-03-17T11:23:38.169Z,5.30
2023-03-17T11:24:38.449Z,5.20
2023-03-17T11:25:38.709Z,5.30
2023-03-17T11:26:39.062Z,5.20
2023-03-17T11:27:39.302Z,5.70
2023-03-17T11:28:39.613Z,5.60
2023-03-17T11:29:39.848Z,6.10
2023-03-17T11:30:40.129Z,5.80
2023-03-17T11:31:40.432Z,5.50
2023-03-17T11:32:40.760Z,5.50
2023-03-17T11:33:40.922Z,5.40
2023-03-17T11:34:41.271Z,5.80
2023-03-17T11:35:41.565Z,6.60
2023-03-17T11:36:41.933Z,5.70
2023-03-17T11:37:42.039Z,5.50
2023-03-17T11:38:42.345Z,5.40
2023-03-17T11:39:42.582Z,5.70
2023-03-17T11:40:42.901Z,5.70
2023-03-17T11:41:44.452Z,6.30
2023-03-17T11:42:43.455Z,5.50
2023-03-17T11:43:43.684Z,5.60
2023-03-17T11:44:44.013Z,6.00
2023-03-17T11:45:44.335Z,6.10
2023-03-17T11:46:44.624Z,5.80
2023-03-17T11:47:44.897Z,5.60
2023-03-17T11:48:45.211Z,6.70
2023-03-17T11:49:45.414Z,6.10
2023-03-17T11:50:45.714Z,6.00
2023-03-17T11:51:46.123Z,5.80
2023-03-17T11:52:46.496Z,6.00
2023-03-17T11:53:46.592Z,5.90
2023-03-17T11:54:46.880Z,5.60
2023-03-17T11:55:47.138Z,5.30
2023-03-17T11:56:47.599Z,5.80
2023-03-17T11:57:47.765Z,5.40
2023-03-17T11:58:48.082Z,5.40
2023-03-17T11:59:48.337Z,5.30
2023-03-17T12:00:48.593Z,5.70
2023-03-17T12:01:48.864Z,6.00
2023-03-17T12:02:49.130Z,5.90
2023-03-17T12:03:49.577Z,6.00
2023-03-17T12:04:49.694Z,5.20
2023-03-17T12:05:50.038Z,5.50
2023-03-17T12:06:50.260Z,5.00
2023-03-17T12:07:50.552Z,5.00
2023-03-17T12:08:50.808Z,5.30
2023-03-17T12:09:51.240Z,5.20
2023-03-17T12:10:52.013Z,5.30
2023-03-17T12:11:51.636Z,5.30
2023-03-17T12:12:51.923Z,5.40
2023-03-17T12:13:52.242Z,4.80
2023-03-17T12:14:52.825Z,4.80
2023-03-17T12:15:52.860Z,5.00
2023-03-17T12:16:53.062Z,5.40
2023-03-17T12:17:53.326Z,5.00
2023-03-17T12:18:53.652Z,5.30
2023-03-17T12:19:53.881Z,4.60
2023-03-17T12:20:54.189Z,4.60
2023-03-17T12:21:54.482Z,5.10
2023-03-17T12:22:56.039Z,5.10
2023-03-17T12:23:54.973Z,5.70
2023-03-17T12:24:55.285Z,5.60
2023-03-17T12:25:55.536Z,5.60
2023-03-17T12:26:55.804Z,5.10
2023-03-17T12:27:56.049Z,5.40
2023-03-17T12:28:56.319Z,5.10
2023-03-17T12:29:56.571Z,5.20
2023-03-17T12:30:57.019Z,5.10
2023-03-17T12:31:57.224Z,5.10
2023-03-17T12:32:57.672Z,5.80
2023-03-17T12:33:57.810Z,5.60
2023-03-17T12:34:58.041Z,5.60
2023-03-17T12:35:58.421Z,5.10
2023-03-17T12:36:58.640Z,6.20
2023-03-17T12:37:58.899Z,6.10
2023-03-17T12:39:00.084Z,5.30
2023-03-17T12:39:59.502Z,4.90
2023-03-17T12:40:59.794Z,5.20
2023-03-17T12:42:00.021Z,5.00
2023-03-17T12:43:00.307Z,4.90
2023-03-17T12:44:00.627Z,5.10
2023-03-17T12:45:00.882Z,8.40
2023-03-17T12:46:01.273Z,5.00
2023-03-17T12:47:01.375Z,5.30
2023-03-17T12:48:01.639Z,5.00
2023-03-17T12:49:01.916Z,4.70
2023-03-17T12:50:02.227Z,4.90
2023-03-17T12:51:02.635Z,4.80
2023-03-17T12:52:02.851Z,5.10
2023-03-17T12:53:03.118Z,5.00
2023-03-17T12:54:03.422Z,5.30
2023-03-17T12:55:03.689Z,4.90
2023-03-17T12:56:03.979Z,5.20
2023-03-17T12:57:04.254Z,5.10
2023-03-17T12:58:04.524Z,5.00
2023-03-17T12:59:04.790Z,5.20
2023-03-17T13:00:05.078Z,5.60
2023-03-17T13:01:05.418Z,5.50
2023-03-17T13:02:05.695Z,4.90
2023-03-17T13:03:05.944Z,5.60
2023-03-17T13:04:06.241Z,5.90
2023-03-17T13:05:06.538Z,5.70
2023-03-17T13:06:06.825Z,5.40
2023-03-17T13:07:07.079Z,5.40
2023-03-17T13:08:07.400Z,5.40
2023-03-17T13:09:07.684Z,6.20
2023-03-17T13:10:07.952Z,6.40
2023-03-17T13:11:08.228Z,6.20
2023-03-17T13:12:08.516Z,6.30
2023-03-17T13:13:08.796Z,6.70
2023-03-17T13:14:09.050Z,5.10
2023-03-17T13:15:09.357Z,11.30
2023-03-17T13:16:09.624Z,5.30
2023-03-17T13:17:09.840Z,5.40
2023-03-17T13:18:10.162Z,5.50